createdAt,value
2022-10-30T00:01:06.448Z,9.53
2022-10-30T00:03:33.528Z,12.60
2022-10-30T00:06:06.287Z,7.67
2022-10-30T00:08:33.917Z,16.10
2022-10-30T00:11:08.683Z,18.10
2022-10-30T00:13:38.267Z,13.83
2022-10-30T00:16:07.385Z,11.67
2022-10-30T00:18:36.894Z,9.40
2022-10-30T00:21:12.334Z,10.47
2022-10-30T00:23:42.952Z,12.30
2022-10-30T00:26:09.914Z,9.70
2022-10-30T00:28:36.708Z,14.30
2022-10-30T00:31:04.956Z,14.10
2022-10-30T00:33:32.155Z,9.63
2022-10-30T00:36:00.318Z,13.63
2022-10-30T00:38:27.242Z,13.63
2022-10-30T00:40:54.137Z,9.83
2022-10-30T00:43:40.743Z,13.57
2022-10-30T00:46:28.500Z,12.17
2022-10-30T00:49:00.933Z,10.60
2022-10-30T00:51:30.443Z,13.63
2022-10-30T00:54:00.524Z,10.80
2022-10-30T00:56:27.516Z,18.63
2022-10-30T00:59:01.308Z,19.90
2022-10-30T01:01:32.271Z,13.40
2022-10-30T01:04:01.806Z,12.20
2022-10-30T01:06:30.140Z,11.27
2022-10-30T01:08:59.951Z,10.40
2022-10-30T01:11:27.251Z,9.87
2022-10-30T01:13:57.135Z,9.37
2022-10-30T01:16:29.806Z,14.43
2022-10-30T01:19:19.552Z,12.23
2022-10-30T01:22:17.389Z,18.00
2022-10-30T01:25:07.328Z,13.43
2022-10-30T01:27:40.602Z,9.47
2022-10-30T01:30:10.038Z,11.87
2022-10-30T01:32:42.958Z,16.67
2022-10-30T01:35:23.886Z,10.30
2022-10-30T01:38:09.190Z,10.17
2022-10-30T01:40:37.067Z,11.30
2022-10-30T01:43:04.033Z,8.83
2022-10-30T01:45:52.736Z,13.87
2022-10-30T01:48:58.602Z,11.97
2022-10-30T01:51:40.568Z,10.73
2022-10-30T01:54:19.112Z,13.50
2022-10-30T01:57:32.689Z,11.07
2022-10-30T02:00:06.896Z,8.60
2022-10-30T02:02:33.894Z,12.60
2022-10-30T02:05:01.471Z,11.37
2022-10-30T02:07:28.259Z,11.50
2022-10-30T02:09:56.061Z,11.47
2022-10-30T02:12:23.495Z,9.53
2022-10-30T02:14:55.132Z,8.97
2022-10-30T02:17:22.058Z,9.30
2022-10-30T02:19:48.880Z,12.23
2022-10-30T02:22:16.821Z,24.27
2022-10-30T02:24:44.625Z,15.43
2022-10-30T02:27:11.687Z,13.93
2022-10-30T02:29:38.441Z,17.53
2022-10-30T02:32:05.292Z,11.07
2022-10-30T02:34:32.048Z,8.30
2022-10-30T02:36:58.823Z,16.07
2022-10-30T02:39:25.731Z,12.27
2022-10-30T02:41:53.798Z,9.27
2022-10-30T02:44:20.838Z,9.07
2022-10-30T02:46:47.725Z,11.17
2022-10-30T02:49:16.693Z,10.67
2022-10-30T02:51:43.464Z,23.03
2022-10-30T02:54:10.487Z,10.93
2022-10-30T02:56:39.338Z,15.00
2022-10-30T02:59:06.377Z,8.57
2022-10-30T03:01:33.210Z,13.33
2022-10-30T03:04:00.112Z,12.13
2022-10-30T03:06:26.903Z,11.63
2022-10-30T03:08:56.721Z,9.33
2022-10-30T03:11:27.252Z,14.37
2022-10-30T03:13:54.867Z,10.43
2022-10-30T03:16:24.052Z,12.77
2022-10-30T03:18:53.862Z,12.50
2022-10-30T03:21:22.590Z,12.13
2022-10-30T03:23:50.592Z,9.70
2022-10-30T03:26:18.358Z,10.10
2022-10-30T03:28:45.480Z,15.50
2022-10-30T03:31:14.787Z,8.33
2022-10-30T03:33:41.623Z,13.00
2022-10-30T03:36:10.868Z,11.43
2022-10-30T03:38:38.013Z,11.83
2022-10-30T03:41:05.567Z,13.63
2022-10-30T03:43:33.448Z,14.50
2022-10-30T03:46:00.698Z,8.70
2022-10-30T03:48:29.433Z,14.67
2022-10-30T03:50:57.597Z,7.47
2022-10-30T03:53:26.335Z,12.60
2022-10-30T03:55:58.672Z,11.73
2022-10-30T03:58:25.817Z,14.43
2022-10-30T04:01:01.694Z,11.70
2022-10-30T04:03:28.644Z,10.40
2022-10-30T04:05:55.457Z,12.10
2022-10-30T04:08:22.558Z,10.60
2022-10-30T04:10:49.349Z,17.37
2022-10-30T04:13:17.702Z,13.13
2022-10-30T04:15:44.682Z,10.40
2022-10-30T04:18:13.035Z,8.77
2022-10-30T04:20:40.321Z,11.43
2022-10-30T04:23:17.903Z,15.07
2022-10-30T04:25:45.631Z,11.10
2022-10-30T04:28:12.702Z,11.27
2022-10-30T04:30:40.577Z,8.57
2022-10-30T04:33:11.401Z,13.27
2022-10-30T04:35:41.018Z,10.23
2022-10-30T04:38:13.596Z,11.80
2022-10-30T04:40:43.399Z,13.07
2022-10-30T04:43:12.206Z,11.67
2022-10-30T04:45:40.061Z,13.67
2022-10-30T04:48:11.975Z,14.07
2022-10-30T04:50:39.012Z,9.03
2022-10-30T04:53:16.545Z,14.37
2022-10-30T04:55:44.306Z,10.03
2022-10-30T04:58:12.343Z,13.80
2022-10-30T05:00:42.472Z,12.67
2022-10-30T05:03:16.925Z,11.40
2022-10-30T05:05:44.134Z,12.37
2022-10-30T05:08:11.579Z,11.03
2022-10-30T05:10:41.565Z,15.97
2022-10-30T05:13:11.348Z,8.50
2022-10-30T05:15:38.420Z,12.73
2022-10-30T05:18:05.306Z,9.07
2022-10-30T05:20:32.112Z,15.47
2022-10-30T05:22:59.939Z,10.87
2022-10-30T05:25:28.381Z,8.57
2022-10-30T05:28:06.411Z,8.53
2022-10-30T05:30:34.758Z,10.73
2022-10-30T05:33:04.518Z,10.60
2022-10-30T05:35:34.761Z,12.50
2022-10-30T05:38:04.226Z,10.17
2022-10-30T05:40:31.425Z,9.33
2022-10-30T05:42:59.643Z,9.77
2022-10-30T05:45:26.827Z,12.27
2022-10-30T05:48:02.523Z,14.93
2022-10-30T05:50:30.136Z,11.07
2022-10-30T05:52:58.254Z,17.90
2022-10-30T05:55:25.398Z,11.13
2022-10-30T05:58:02.775Z,14.70
2022-10-30T06:00:31.557Z,8.57
2022-10-30T06:03:03.919Z,14.57
2022-10-30T06:05:33.100Z,13.73
2022-10-30T06:08:00.672Z,13.97
2022-10-30T06:10:28.619Z,11.00
2022-10-30T06:13:01.441Z,14.87
2022-10-30T06:15:29.576Z,12.03
2022-10-30T06:17:57.971Z,14.70
2022-10-30T06:20:28.239Z,10.17
2022-10-30T06:23:03.584Z,8.80
2022-10-30T06:25:34.087Z,12.57
2022-10-30T06:28:05.901Z,9.67
2022-10-30T06:30:33.571Z,10.47
2022-10-30T06:33:02.949Z,15.93
2022-10-30T06:35:30.162Z,11.50
2022-10-30T06:38:00.613Z,16.87
2022-10-30T06:40:30.080Z,9.57
2022-10-30T06:42:57.846Z,13.43
2022-10-30T06:45:26.335Z,12.53
2022-10-30T06:47:53.486Z,10.70
2022-10-30T06:50:22.027Z,11.43
2022-10-30T06:52:51.902Z,9.63
2022-10-30T06:55:22.165Z,13.40
2022-10-30T06:57:57.342Z,15.80
2022-10-30T07:00:24.829Z,9.83
2022-10-30T07:02:59.813Z,12.10
2022-10-30T07:05:27.454Z,12.50
2022-10-30T07:07:57.645Z,14.57
2022-10-30T07:10:26.890Z,10.73
2022-10-30T07:12:56.415Z,9.47
2022-10-30T07:15:24.384Z,12.77
2022-10-30T07:18:00.788Z,15.17
2022-10-30T07:20:32.956Z,15.87
2022-10-30T07:23:00.388Z,9.83
2022-10-30T07:25:27.315Z,13.10
2022-10-30T07:27:55.275Z,12.90
2022-10-30T07:33:01.834Z,12.07
2022-10-30T07:35:30.607Z,10.70
2022-10-30T07:38:04.371Z,13.07
2022-10-30T07:40:32.175Z,15.87
2022-10-30T07:43:01.336Z,19.03
2022-10-30T07:45:28.757Z,19.50
2022-10-30T07:47:56.530Z,14.27
2022-10-30T07:50:23.987Z,12.80
2022-10-30T07:52:54.535Z,12.20
2022-10-30T07:55:21.302Z,9.37
2022-10-30T07:57:48.463Z,12.30
2022-10-30T08:00:16.936Z,9.27
2022-10-30T08:02:43.812Z,13.90
2022-10-30T08:05:10.696Z,17.10
2022-10-30T08:07:42.534Z,13.00
2022-10-30T08:10:10.136Z,10.97
2022-10-30T08:12:42.112Z,14.23
2022-10-30T08:15:10.000Z,11.17
2022-10-30T08:17:48.837Z,14.53
2022-10-30T08:20:21.253Z,9.73
2022-10-30T08:22:58.572Z,11.20
2022-10-30T08:25:29.709Z,15.87
2022-10-30T08:28:00.516Z,14.13
2022-10-30T08:30:30.853Z,12.77
2022-10-30T08:33:06.014Z,10.43
2022-10-30T08:38:03.476Z,15.70
2022-10-30T08:40:30.909Z,13.07
2022-10-30T08:43:01.546Z,10.83
2022-10-30T08:45:31.085Z,10.60
2022-10-30T08:48:06.610Z,12.77
2022-10-30T08:50:36.264Z,14.93
2022-10-30T08:53:08.335Z,15.27
2022-10-30T08:55:36.204Z,12.90
2022-10-30T08:58:05.103Z,15.77
2022-10-30T09:00:32.112Z,7.57
2022-10-30T09:03:02.840Z,14.07
2022-10-30T09:05:32.808Z,12.83
2022-10-30T09:08:01.744Z,14.37
2022-10-30T09:10:30.560Z,12.33
2022-10-30T09:13:02.389Z,10.70
2022-10-30T09:15:29.564Z,13.30
2022-10-30T09:18:04.630Z,15.73
2022-10-30T09:20:31.905Z,18.03
2022-10-30T09:23:01.654Z,13.27
2022-10-30T09:25:29.114Z,16.83
2022-10-30T09:27:56.047Z,12.03
2022-10-30T09:30:23.156Z,15.07
2022-10-30T09:33:02.380Z,15.07
2022-10-30T09:35:30.410Z,12.90
2022-10-30T09:37:57.773Z,11.40
2022-10-30T09:40:44.762Z,16.35
2022-10-30T09:43:17.544Z,16.97
2022-10-30T09:46:11.967Z,9.90
2022-10-30T09:49:00.858Z,9.23
2022-10-30T09:51:54.537Z,13.40
2022-10-30T09:54:43.504Z,13.63
2022-10-30T09:57:27.787Z,15.37
2022-10-30T10:00:16.347Z,12.33
2022-10-30T10:03:22.938Z,9.37
2022-10-30T10:05:56.571Z,7.65
2022-10-30T10:08:29.738Z,9.43
2022-10-30T10:11:06.777Z,12.20
2022-10-30T10:13:47.361Z,9.18
2022-10-30T10:16:36.773Z,7.95
2022-10-30T10:19:13.794Z,13.50
2022-10-30T10:21:45.502Z,9.60
2022-10-30T10:24:22.440Z,9.55
2022-10-30T10:26:54.690Z,10.10
2022-10-30T10:29:21.574Z,13.05
2022-10-30T10:31:54.312Z,10.70
2022-10-30T10:34:27.879Z,12.63
2022-10-30T10:37:17.050Z,10.63
2022-10-30T10:40:02.657Z,9.88
2022-10-30T10:42:40.029Z,10.52
2022-10-30T10:45:30.631Z,11.95
2022-10-30T10:50:52.411Z,10.27
2022-10-30T10:53:26.693Z,11.60
2022-10-30T10:55:57.416Z,7.53
2022-10-30T10:58:58.788Z,14.55
2022-10-30T11:01:38.504Z,8.82
2022-10-30T11:04:15.905Z,13.65
2022-10-30T11:06:49.306Z,12.00
2022-10-30T11:09:21.402Z,10.85
2022-10-30T11:11:51.083Z,15.48
2022-10-30T11:14:22.675Z,9.80
2022-10-30T11:17:20.089Z,14.27
2022-10-30T11:19:52.642Z,10.73
2022-10-30T11:22:30.657Z,9.95
2022-10-30T11:25:25.430Z,10.85
2022-10-30T11:27:58.064Z,12.23
2022-10-30T11:30:32.256Z,12.13
2022-10-30T11:33:19.580Z,9.35
2022-10-30T11:35:46.472Z,10.50
2022-10-30T11:38:20.387Z,15.88
2022-10-30T11:40:51.520Z,18.00
2022-10-30T11:43:22.721Z,7.53
2022-10-30T11:45:50.389Z,9.25
2022-10-30T11:48:27.214Z,9.43
2022-10-30T11:50:59.275Z,10.25
2022-10-30T11:53:40.181Z,12.50
2022-10-30T11:56:23.738Z,15.27
2022-10-30T11:58:53.742Z,10.73
2022-10-30T12:01:27.856Z,10.90
2022-10-30T12:03:56.724Z,9.20
2022-10-30T12:06:23.671Z,13.23
2022-10-30T12:09:09.148Z,11.60
2022-10-30T12:11:37.429Z,14.73
2022-10-30T12:14:05.085Z,9.07
2022-10-30T12:16:33.662Z,8.40
2022-10-30T12:19:08.717Z,9.98
2022-10-30T12:21:39.722Z,16.23
2022-10-30T12:24:13.573Z,14.23
2022-10-30T12:26:41.093Z,17.73
2022-10-30T12:29:15.844Z,7.97
2022-10-30T12:32:16.310Z,12.48
2022-10-30T12:34:55.218Z,7.97
2022-10-30T12:37:29.673Z,15.65
2022-10-30T12:40:13.568Z,13.77
2022-10-30T12:42:48.898Z,12.52
2022-10-30T12:45:24.956Z,11.85
2022-10-30T12:48:18.360Z,13.25
2022-10-30T12:51:07.653Z,9.90
2022-10-30T12:54:02.984Z,10.75
2022-10-30T12:56:37.457Z,14.63
2022-10-30T12:59:25.577Z,11.20
2022-10-30T13:02:04.403Z,12.27
2022-10-30T13:04:39.804Z,12.90
2022-10-30T13:07:41.997Z,7.70
2022-10-30T13:10:59.396Z,10.10
2022-10-30T13:13:37.534Z,13.93
2022-10-30T13:16:18.358Z,11.00
2022-10-30T13:18:45.215Z,12.23
2022-10-30T13:21:12.151Z,12.15
2022-10-30T13:23:57.746Z,10.27
2022-10-30T13:26:46.465Z,13.85
2022-10-30T13:29:44.148Z,8.68
2022-10-30T13:32:30.598Z,12.48
2022-10-30T13:35:25.126Z,12.00
2022-10-30T13:38:02.286Z,14.88
2022-10-30T13:40:40.670Z,12.50
2022-10-30T13:43:30.249Z,12.00
2022-10-30T13:45:57.204Z,11.50
2022-10-30T13:48:33.517Z,12.57
2022-10-30T13:51:25.110Z,11.80
2022-10-30T13:54:08.388Z,11.95
2022-10-30T13:56:36.662Z,13.70
2022-10-30T13:59:28.412Z,13.63
2022-10-30T14:02:23.261Z,11.55
2022-10-30T14:05:12.004Z,10.15
2022-10-30T14:08:05.212Z,10.00
2022-10-30T14:10:59.345Z,17.50
2022-10-30T14:13:30.089Z,15.70
2022-10-30T14:16:04.719Z,9.77
2022-10-30T14:18:46.015Z,12.07
2022-10-30T14:22:00.692Z,13.75
2022-10-30T14:24:35.299Z,12.73
2022-10-30T14:27:05.095Z,12.43
2022-10-30T14:29:34.731Z,11.70
2022-10-30T14:32:22.790Z,12.57
2022-10-30T14:34:53.249Z,11.73
2022-10-30T14:37:29.809Z,20.98
2022-10-30T14:39:57.652Z,11.75
2022-10-30T14:42:32.516Z,14.88
2022-10-30T14:45:19.963Z,13.10
2022-10-30T14:48:04.022Z,14.13
2022-10-30T14:50:49.457Z,16.88
2022-10-30T14:53:25.328Z,15.25
2022-10-30T14:56:19.762Z,14.25
2022-10-30T14:59:15.270Z,16.23
2022-10-30T15:02:03.199Z,13.90
2022-10-30T15:04:45.778Z,11.95
2022-10-30T15:07:24.185Z,9.55
2022-10-30T15:10:17.180Z,9.32
2022-10-30T15:12:54.787Z,16.58
2022-10-30T15:15:24.708Z,10.38
2022-10-30T15:17:55.359Z,11.35
2022-10-30T15:20:31.854Z,14.43
2022-10-30T15:23:22.945Z,13.38
2022-10-30T15:25:52.489Z,32.05
2022-10-30T15:28:23.006Z,12.88
2022-10-30T15:31:08.145Z,13.43
2022-10-30T15:33:38.466Z,12.25
2022-10-30T15:36:05.987Z,11.73
2022-10-30T15:38:32.793Z,15.83
2022-10-30T15:41:04.830Z,15.03
2022-10-30T15:43:40.516Z,15.57
2022-10-30T15:46:14.899Z,16.10
2022-10-30T15:48:54.051Z,14.07
2022-10-30T15:51:23.296Z,15.57
2022-10-30T15:54:01.325Z,13.80
2022-10-30T15:56:54.100Z,16.97
2022-10-30T15:59:37.703Z,16.87
2022-10-30T16:02:21.444Z,15.63
2022-10-30T16:04:48.481Z,15.17
2022-10-30T16:07:26.873Z,16.70
2022-10-30T16:09:56.726Z,17.83
2022-10-30T16:12:28.362Z,15.80
2022-10-30T16:14:56.951Z,15.53
2022-10-30T16:17:25.263Z,18.50
2022-10-30T16:19:55.837Z,23.87
2022-10-30T16:22:29.798Z,48.27
2022-10-30T16:24:57.971Z,29.47
2022-10-30T16:27:25.266Z,30.23
2022-10-30T16:30:00.493Z,33.93
2022-10-30T16:32:32.076Z,31.27
2022-10-30T16:35:01.453Z,31.63
2022-10-30T16:37:40.751Z,28.77
2022-10-30T16:40:17.031Z,22.33
2022-10-30T16:42:55.909Z,21.67
2022-10-30T16:45:23.234Z,21.07
2022-10-30T16:48:04.416Z,17.80
2022-10-30T16:50:37.656Z,19.53
2022-10-30T16:53:15.214Z,18.63
2022-10-30T16:55:42.048Z,17.50
2022-10-30T16:58:13.018Z,21.53
2022-10-30T17:00:42.472Z,19.53
2022-10-30T17:03:12.003Z,19.87
2022-10-30T17:05:42.434Z,22.77
2022-10-30T17:08:18.420Z,23.07
2022-10-30T17:10:54.798Z,28.30
2022-10-30T17:13:33.740Z,25.93
2022-10-30T17:16:12.619Z,20.03
2022-10-30T17:18:39.528Z,21.87
2022-10-30T17:21:08.475Z,18.50
2022-10-30T17:23:36.103Z,20.43
2022-10-30T17:26:11.176Z,19.93
2022-10-30T17:28:39.194Z,20.23
2022-10-30T17:31:18.058Z,17.83
2022-10-30T17:33:46.635Z,15.00
2022-10-30T17:36:14.077Z,17.83
2022-10-30T17:38:41.000Z,18.47
2022-10-30T17:41:09.898Z,17.00
2022-10-30T17:43:56.675Z,22.83
2022-10-30T17:46:26.461Z,17.67
2022-10-30T17:48:53.660Z,16.53
2022-10-30T17:51:20.717Z,18.17
2022-10-30T17:53:48.741Z,15.07
2022-10-30T17:56:26.801Z,16.07
2022-10-30T17:58:54.597Z,14.70
2022-10-30T18:01:25.202Z,18.43
2022-10-30T18:03:55.201Z,16.83
2022-10-30T18:06:25.720Z,19.17
2022-10-30T18:08:53.570Z,18.63
2022-10-30T18:11:23.948Z,18.53
2022-10-30T18:13:52.308Z,22.03
2022-10-30T18:16:19.899Z,14.80
2022-10-30T18:18:46.934Z,20.80
2022-10-30T18:21:15.891Z,14.50
2022-10-30T18:23:58.509Z,18.83
2022-10-30T18:26:27.586Z,16.13
2022-10-30T18:28:54.852Z,15.43
2022-10-30T18:31:25.953Z,13.37
2022-10-30T18:33:52.721Z,14.47
2022-10-30T18:36:21.895Z,15.60
2022-10-30T18:38:49.215Z,17.93
2022-10-30T18:41:38.014Z,12.50
2022-10-30T18:44:05.345Z,13.90
2022-10-30T18:46:33.968Z,14.67
2022-10-30T18:49:01.015Z,19.77
2022-10-30T18:51:29.351Z,16.70
2022-10-30T18:53:57.152Z,17.03
2022-10-30T18:56:29.629Z,15.00
2022-10-30T18:59:02.134Z,23.17
2022-10-30T19:01:32.202Z,14.90
2022-10-30T19:04:03.896Z,17.60
2022-10-30T19:06:30.976Z,17.30
2022-10-30T19:08:57.741Z,18.33
2022-10-30T19:11:25.772Z,17.50
2022-10-30T19:13:56.306Z,16.07
2022-10-30T19:16:25.433Z,16.40
2022-10-30T19:18:52.863Z,16.57
2022-10-30T19:21:28.105Z,14.37
2022-10-30T19:23:56.361Z,19.37
2022-10-30T19:26:23.373Z,19.67
2022-10-30T19:28:50.208Z,20.93
2022-10-30T19:31:18.911Z,19.50
2022-10-30T19:33:51.391Z,17.33
2022-10-30T19:36:36.568Z,15.10
2022-10-30T19:39:10.137Z,18.30
2022-10-30T19:41:37.789Z,21.40
2022-10-30T19:44:04.744Z,17.87
2022-10-30T19:46:32.012Z,21.60
2022-10-30T19:48:59.810Z,19.63
2022-10-30T19:51:28.252Z,22.23
2022-10-30T19:53:55.803Z,18.70
2022-10-30T19:56:22.785Z,19.57
2022-10-30T19:58:50.034Z,20.97
2022-10-30T20:01:17.388Z,22.00
2022-10-30T20:03:46.737Z,17.40
2022-10-30T20:06:15.625Z,20.00
2022-10-30T20:08:42.616Z,18.63
2022-10-30T20:11:09.708Z,17.70
2022-10-30T20:13:37.240Z,21.60
2022-10-30T20:16:05.620Z,22.10
2022-10-30T20:18:35.248Z,17.00
2022-10-30T20:21:05.244Z,15.40
2022-10-30T20:23:32.349Z,20.20
2022-10-30T20:26:05.852Z,20.37
2022-10-30T20:28:37.006Z,18.73
2022-10-30T20:31:04.748Z,21.13
2022-10-30T20:33:31.772Z,16.97
2022-10-30T20:36:01.856Z,13.53
2022-10-30T20:38:31.596Z,18.23
2022-10-30T20:41:01.700Z,17.50
2022-10-30T20:43:38.889Z,16.97
2022-10-30T20:46:09.385Z,27.77
2022-10-30T20:48:37.920Z,25.37
2022-10-30T20:51:06.043Z,21.10
2022-10-30T20:53:32.875Z,20.90
2022-10-30T20:56:00.049Z,18.30
2022-10-30T20:58:26.943Z,20.73
2022-10-30T21:00:55.886Z,20.57
2022-10-30T21:03:22.906Z,18.67
2022-10-30T21:05:56.583Z,17.20
2022-10-30T21:08:23.599Z,18.90
2022-10-30T21:10:58.480Z,17.97
2022-10-30T21:13:26.191Z,16.20
2022-10-30T21:15:53.269Z,19.70
2022-10-30T21:18:24.139Z,13.40
2022-10-30T21:20:51.045Z,16.33
2022-10-30T21:23:17.972Z,15.63
2022-10-30T21:25:48.490Z,18.97
2022-10-30T21:28:15.375Z,19.50
2022-10-30T21:30:42.431Z,14.37
2022-10-30T21:33:09.667Z,15.77
2022-10-30T21:35:36.982Z,19.13
2022-10-30T21:38:04.012Z,20.00
2022-10-30T21:40:30.947Z,18.03
2022-10-30T21:43:01.330Z,19.20
2022-10-30T21:45:31.235Z,16.07
2022-10-30T21:47:58.144Z,14.27
2022-10-30T21:50:26.161Z,17.30
2022-10-30T21:52:52.931Z,15.80
2022-10-30T21:55:19.892Z,20.37
2022-10-30T21:57:46.886Z,19.27
2022-10-30T22:00:14.517Z,16.10
2022-10-30T22:02:41.492Z,17.07
2022-10-30T22:05:08.738Z,15.27
2022-10-30T22:07:35.468Z,14.57
2022-10-30T22:10:02.601Z,16.87
2022-10-30T22:12:29.374Z,15.87
2022-10-30T22:14:56.256Z,16.17
2022-10-30T22:17:23.133Z,16.00
2022-10-30T22:19:50.182Z,15.53
2022-10-30T22:22:17.110Z,17.93
2022-10-30T22:24:43.955Z,13.30
2022-10-30T22:27:10.694Z,15.57
2022-10-30T22:29:37.514Z,13.50
2022-10-30T22:32:04.491Z,11.03
2022-10-30T22:34:31.448Z,14.90
2022-10-30T22:36:58.371Z,14.63
2022-10-30T22:39:25.255Z,17.67
2022-10-30T22:41:52.075Z,16.77
2022-10-30T22:44:19.593Z,15.40
2022-10-30T22:46:46.573Z,17.77
2022-10-30T22:49:13.368Z,17.57
2022-10-30T22:51:40.326Z,20.37
2022-10-30T22:54:09.817Z,16.10
2022-10-30T22:56:37.279Z,21.27
2022-10-30T22:59:06.949Z,18.07
2022-10-30T23:01:35.923Z,18.30
2022-10-30T23:04:04.698Z,13.50
2022-10-30T23:06:32.375Z,17.50
2022-10-30T23:09:01.564Z,18.37
2022-10-30T23:11:29.250Z,11.53
2022-10-30T23:13:56.735Z,11.97
2022-10-30T23:16:25.831Z,13.20
2022-10-30T23:18:56.309Z,22.20
2022-10-30T23:21:24.885Z,17.83
2022-10-30T23:23:51.880Z,18.67
2022-10-30T23:26:21.611Z,13.37
2022-10-30T23:28:50.375Z,16.23
2022-10-30T23:31:17.295Z,17.23
2022-10-30T23:33:49.842Z,11.63
2022-10-30T23:36:17.865Z,16.23
2022-10-30T23:38:44.655Z,16.27
2022-10-30T23:41:11.415Z,17.23
2022-10-30T23:43:38.165Z,15.17
2022-10-30T23:46:05.047Z,15.03
2022-10-30T23:48:31.751Z,20.23
2022-10-30T23:50:58.591Z,17.73
2022-10-30T23:53:25.465Z,18.80
2022-10-30T23:55:55.519Z,17.63
2022-10-30T23:58:22.374Z,19.23
